Del Rey, CA

7:52 PM PDT on October 01, 2014 (GMT -0700)
McClarty Farms | Change Station
CLOSE
Current Station
Personal Weather Station
Location: Parlier, CA
Elevation: 338 ft
Nearby Weather Stations

Elev 338 ft 36.62 °N, 119.58 °W | Updated 1 minute ago

Clear
Clear
70.1 °F
Feels Like 76 °F
N
0.0
Wind Variable Wind from North
Gusts 0.0 mph

Today
High -- | Low -- °F
--% Chance of Precip.
Yesterday
High -- | Low -- °F
Precip. -- in
6:53 AM 6:41 PM
First Quarter, 54% visible
Pressure 29.86 in
Visibility 10.0 miles
Clouds Few 7000 ft
Heat Index 76 °F
Dew Point 56 °F
Humidity 60%
Rainfall 0.00 in
Snow Depth 0 in , 1 in , 0 in
UV 0 out of 12
Pollen 5.40 out of 12
Air Quality Not available.
Flu Activity Not available.
METAR KFAT 020153Z 32005KT 10SM FEW070 28/10 A2987 RMK AO2 SLP110 FEW CU DSNT N T02830100

More Conditions Fewer Conditions

Pressure 29.86 in
Visibility 10.0 miles
Clouds Few 7000 ft
Heat Index 76 °F
Dew Point 56 °F
Humidity 60%
Rainfall 0.00 in
Snow Depth 0 in , 1 in , 0 in
UV 0 out of 12
Pollen 5.40 out of 12
Air Quality Not available.
Flu Activity Not available.
METAR KFAT 020153Z 32005KT 10SM FEW070 28/10 A2987 RMK AO2 SLP110 FEW CU DSNT N T02830100

More Conditions Fewer Conditions

10-Day Weather Forecast

Almanac

Astronomy

Oct. 01, 2014 Rise Set
Actual Time 6:53 AM PDT 6:41 PM PDT
Civil Twilight 6:27 AM PDT 7:07 PM PDT
Nautical Twilight 5:57 AM PDT 7:37 PM PDT
Astronomical Twilight 5:27 AM PDT 8:07 PM PDT
Moon 1:52 PM PDT (10/1) No Moon Set
Length of Visible Light 12h 39m
Length of Day
11h 47m
Tomorrow will be 2m 19s shorter.
First Quarter, 54% of the Moon is Illuminated
Today
First Quarter
Oct 8
Full
Oct 15
Last Quarter
Oct 23
New
Oct 30
First Quarter

Today's Extremes

State Highs State Lows

Community

WunderPhotos

Upload Photos

1,758,154 photos uploaded!

WunderBlogs® & News

Nearby

Air Quality

  Air Quality AQ Index Pollutant
Yesterday Moderate
OZONE
Wednesday Moderate
OZONE
Thursday Moderate
OZONE
Friday Unhealthy for Sensitive Groups
OZONE
Saturday Unhealthy for Sensitive Groups
OZONE
Sunday Unhealthy for Sensitive Groups
OZONE
Monday Unhealthy for Sensitive Groups
OZONE

Snow Depth

Station Depth Elevation
CSS Lab 0 in 6900 ft
Rubicon #2 1 in 7500 ft
Hagan's Meadow 0 in 8000 ft
Tahoe City Cross 0 in 6750 ft
Summit Meadow 1 in 9122 ft

Earthquake Activity

City Distance Mag. Time & Date
South Dos Palos, California 69 miles 3.0 11:17 AM PDT
2014-10-01
Shandon, California 73 miles 2.9 5:34 PM PDT
2014-09-30
South Dos Palos, California 69 miles 2.7 3:08 PM PDT
2014-09-30
South Dos Palos, California 69 miles 2.5 9:18 PM PDT
2014-09-29
Minimum magnitude displayed is 2.5.

Coastal Water Temperatures

Place Temperature
No Stations Reporting

Nearby Weather Stations